sensor_id;sensor_type;location;lat;lon;timestamp;pressure;altitude;pressure_sealevel;temperature;humidity
34742;BME280;20968;42.696;23.360;2023-02-11T00:01:10;96927.19;;;0.40;54.92
34742;BME280;20968;42.696;23.360;2023-02-11T00:03:36;96936.44;;;0.39;54.47
34742;BME280;20968;42.696;23.360;2023-02-11T00:06:05;96932.28;;;0.45;54.66
34742;BME280;20968;42.696;23.360;2023-02-11T00:08:33;96928.88;;;0.51;54.18
34742;BME280;20968;42.696;23.360;2023-02-11T00:10:58;96941.38;;;0.63;53.48
34742;BME280;20968;42.696;23.360;2023-02-11T00:13:24;96936.38;;;0.65;53.44
34742;BME280;20968;42.696;23.360;2023-02-11T00:15:50;96948.78;;;0.66;53.74
34742;BME280;20968;42.696;23.360;2023-02-11T00:18:15;96939.00;;;0.58;53.51
34742;BME280;20968;42.696;23.360;2023-02-11T00:20:41;96937.81;;;0.55;52.95
34742;BME280;20968;42.696;23.360;2023-02-11T00:23:07;96938.59;;;0.56;53.16
34742;BME280;20968;42.696;23.360;2023-02-11T00:25:33;96933.75;;;0.39;53.52
34742;BME280;20968;42.696;23.360;2023-02-11T00:27:58;96927.94;;;0.37;53.91
34742;BME280;20968;42.696;23.360;2023-02-11T00:30:24;96925.47;;;0.25;53.81
34742;BME280;20968;42.696;23.360;2023-02-11T00:32:49;96927.75;;;0.23;53.76
34742;BME280;20968;42.696;23.360;2023-02-11T00:35:15;96935.53;;;0.24;53.41
34742;BME280;20968;42.696;23.360;2023-02-11T00:37:40;96922.25;;;0.16;53.41
34742;BME280;20968;42.696;23.360;2023-02-11T00:40:06;96923.69;;;0.06;54.08
34742;BME280;20968;42.696;23.360;2023-02-11T00:42:32;96933.44;;;0.14;54.47
34742;BME280;20968;42.696;23.360;2023-02-11T00:45:00;96925.16;;;0.00;53.93
34742;BME280;20968;42.696;23.360;2023-02-11T00:47:25;96915.81;;;-0.05;54.03
34742;BME280;20968;42.696;23.360;2023-02-11T00:49:51;96927.63;;;-0.17;55.23
34742;BME280;20968;42.696;23.360;2023-02-11T00:52:16;96912.53;;;-0.18;54.25
34742;BME280;20968;42.696;23.360;2023-02-11T00:54:42;96909.31;;;-0.27;54.30
34742;BME280;20968;42.696;23.360;2023-02-11T00:57:07;96919.81;;;-0.22;54.87
34742;BME280;20968;42.696;23.360;2023-02-11T00:59:33;96908.94;;;-0.25;54.74
34742;BME280;20968;42.696;23.360;2023-02-11T01:01:58;96922.19;;;-0.20;54.53
34742;BME280;20968;42.696;23.360;2023-02-11T01:04:24;96919.88;;;-0.18;54.29
34742;BME280;20968;42.696;23.360;2023-02-11T01:06:49;96921.13;;;-0.12;53.91
34742;BME280;20968;42.696;23.360;2023-02-11T01:09:15;96915.34;;;-0.37;54.23
34742;BME280;20968;42.696;23.360;2023-02-11T01:11:40;96911.88;;;-0.37;54.40
34742;BME280;20968;42.696;23.360;2023-02-11T01:14:05;96909.50;;;-0.42;54.83
34742;BME280;20968;42.696;23.360;2023-02-11T01:16:31;96910.28;;;-0.42;54.69
34742;BME280;20968;42.696;23.360;2023-02-11T01:18:56;96924.25;;;-0.36;54.19
34742;BME280;20968;42.696;23.360;2023-02-11T01:21:23;96914.16;;;-0.39;54.27
34742;BME280;20968;42.696;23.360;2023-02-11T01:23:49;96922.47;;;-0.25;54.08
34742;BME280;20968;42.696;23.360;2023-02-11T01:26:14;96909.78;;;-0.21;54.16
34742;BME280;20968;42.696;23.360;2023-02-11T01:28:40;96905.84;;;-0.27;54.03
34742;BME280;20968;42.696;23.360;2023-02-11T01:31:05;96902.81;;;-0.22;54.07
34742;BME280;20968;42.696;23.360;2023-02-11T01:33:31;96905.84;;;-0.27;53.62
34742;BME280;20968;42.696;23.360;2023-02-11T01:36:00;96909.38;;;-0.23;54.06
34742;BME280;20968;42.696;23.360;2023-02-11T01:38:26;96891.38;;;-0.38;54.37
34742;BME280;20968;42.696;23.360;2023-02-11T01:40:56;96892.56;;;-0.36;54.50
34742;BME280;20968;42.696;23.360;2023-02-11T01:43:24;96908.38;;;-0.38;54.40
34742;BME280;20968;42.696;23.360;2023-02-11T01:51:03;96899.91;;;-0.36;54.59
34742;BME280;20968;42.696;23.360;2023-02-11T01:53:30;96909.09;;;-0.15;54.36
34742;BME280;20968;42.696;23.360;2023-02-11T01:56:15;96917.72;;;-0.06;54.89
34742;BME280;20968;42.696;23.360;2023-02-11T01:59:05;96915.84;;;-0.02;54.26
34742;BME280;20968;42.696;23.360;2023-02-11T02:01:32;96888.97;;;-0.17;54.17
34742;BME280;20968;42.696;23.360;2023-02-11T02:04:00;96903.66;;;-0.15;54.19
34742;BME280;20968;42.696;23.360;2023-02-11T02:06:42;96907.66;;;-0.09;53.72
34742;BME280;20968;42.696;23.360;2023-02-11T02:09:28;96909.28;;;-0.01;54.18
34742;BME280;20968;42.696;23.360;2023-02-11T02:11:57;96911.50;;;-0.10;54.51
34742;BME280;20968;42.696;23.360;2023-02-11T02:14:23;96902.22;;;-0.09;53.64
34742;BME280;20968;42.696;23.360;2023-02-11T02:16:48;96903.84;;;-0.04;53.75
34742;BME280;20968;42.696;23.360;2023-02-11T02:22:12;96902.75;;;0.00;53.92
34742;BME280;20968;42.696;23.360;2023-02-11T02:31:22;96906.28;;;0.07;53.25
34742;BME280;20968;42.696;23.360;2023-02-11T02:34:18;96910.06;;;-0.01;52.94
34742;BME280;20968;42.696;23.360;2023-02-11T02:36:54;96903.09;;;-0.02;53.36
34742;BME280;20968;42.696;23.360;2023-02-11T02:39:26;96887.13;;;-0.10;53.11
34742;BME280;20968;42.696;23.360;2023-02-11T02:41:54;96905.31;;;-0.07;54.23
34742;BME280;20968;42.696;23.360;2023-02-11T02:44:20;96904.59;;;-0.04;53.83
34742;BME280;20968;42.696;23.360;2023-02-11T02:46:46;96886.72;;;-0.12;53.20
34742;BME280;20968;42.696;23.360;2023-02-11T02:49:15;96893.00;;;-0.04;53.34
34742;BME280;20968;42.696;23.360;2023-02-11T02:57:31;96905.56;;;-0.19;53.12
34742;BME280;20968;42.696;23.360;2023-02-11T03:03:21;96906.53;;;-0.34;53.39
34742;BME280;20968;42.696;23.360;2023-02-11T03:06:07;96902.19;;;-0.38;53.31
34742;BME280;20968;42.696;23.360;2023-02-11T03:08:46;96914.78;;;-0.23;53.89
34742;BME280;20968;42.696;23.360;2023-02-11T03:11:16;96895.31;;;-0.32;53.46
34742;BME280;20968;42.696;23.360;2023-02-11T03:13:43;96910.50;;;-0.24;53.67
34742;BME280;20968;42.696;23.360;2023-02-11T03:16:14;96905.00;;;-0.31;53.23
34742;BME280;20968;42.696;23.360;2023-02-11T03:18:42;96894.13;;;-0.35;52.92
34742;BME280;20968;42.696;23.360;2023-02-11T03:21:10;96902.25;;;-0.35;53.48
34742;BME280;20968;42.696;23.360;2023-02-11T03:23:38;96905.75;;;-0.34;53.16
34742;BME280;20968;42.696;23.360;2023-02-11T03:26:33;96894.00;;;-0.45;53.50
34742;BME280;20968;42.696;23.360;2023-02-11T03:31:35;96897.88;;;-0.43;53.70
34742;BME280;20968;42.696;23.360;2023-02-11T03:34:06;96907.56;;;-0.42;53.20
34742;BME280;20968;42.696;23.360;2023-02-11T03:36:55;96911.16;;;-0.34;52.99
34742;BME280;20968;42.696;23.360;2023-02-11T03:39:37;96905.69;;;-0.38;53.68
34742;BME280;20968;42.696;23.360;2023-02-11T03:42:05;96900.13;;;-0.48;54.25
34742;BME280;20968;42.696;23.360;2023-02-11T03:44:40;96894.28;;;-0.54;53.30
34742;BME280;20968;42.696;23.360;2023-02-11T03:47:09;96902.44;;;-0.50;53.41
34742;BME280;20968;42.696;23.360;2023-02-11T03:49:37;96897.88;;;-0.43;53.99
34742;BME280;20968;42.696;23.360;2023-02-11T03:52:05;96898.69;;;-0.42;53.91
34742;BME280;20968;42.696;23.360;2023-02-11T03:54:32;96897.06;;;-0.47;53.45
34742;BME280;20968;42.696;23.360;2023-02-11T03:57:00;96897.06;;;-0.47;53.56
34742;BME280;20968;42.696;23.360;2023-02-11T03:59:27;96904.88;;;-0.42;53.22
34742;BME280;20968;42.696;23.360;2023-02-11T04:01:52;96898.56;;;-0.49;53.46
34742;BME280;20968;42.696;23.360;2023-02-11T04:04:18;96888.81;;;-0.57;53.19
34742;BME280;20968;42.696;23.360;2023-02-11T04:06:43;96905.69;;;-0.64;53.44
34742;BME280;20968;42.696;23.360;2023-02-11T04:09:09;96903.00;;;-0.64;52.97
34742;BME280;20968;42.696;23.360;2023-02-11T04:11:35;96893.88;;;-0.78;53.89
34742;BME280;20968;42.696;23.360;2023-02-11T04:14:00;96883.28;;;-0.90;53.93
34742;BME280;20968;42.696;23.360;2023-02-11T04:16:26;96914.63;;;-0.85;53.77
34742;BME280;20968;42.696;23.360;2023-02-11T04:18:51;96900.63;;;-0.91;53.90
34742;BME280;20968;42.696;23.360;2023-02-11T04:21:17;96902.56;;;-0.91;53.24
34742;BME280;20968;42.696;23.360;2023-02-11T04:23:43;96897.28;;;-0.84;53.48
34742;BME280;20968;42.696;23.360;2023-02-11T04:26:08;96898.81;;;-0.83;53.84
34742;BME280;20968;42.696;23.360;2023-02-11T04:28:34;96899.06;;;-0.92;53.31
34742;BME280;20968;42.696;23.360;2023-02-11T04:31:00;96906.56;;;-0.82;53.58
34742;BME280;20968;42.696;23.360;2023-02-11T04:33:25;96900.38;;;-0.82;54.03
34742;BME280;20968;42.696;23.360;2023-02-11T04:35:51;96910.47;;;-0.79;54.10
34742;BME280;20968;42.696;23.360;2023-02-11T04:38:16;96889.88;;;-0.87;53.53
34742;BME280;20968;42.696;23.360;2023-02-11T04:40:42;96893.09;;;-0.78;53.85
34742;BME280;20968;42.696;23.360;2023-02-11T04:43:07;96898.88;;;-0.80;54.10
34742;BME280;20968;42.696;23.360;2023-02-11T04:45:33;96884.47;;;-0.87;54.38
34742;BME280;20968;42.696;23.360;2023-02-11T04:48:01;96881.72;;;-0.91;53.69
34742;BME280;20968;42.696;23.360;2023-02-11T04:50:27;96883.88;;;-1.00;53.75
34742;BME280;20968;42.696;23.360;2023-02-11T04:52:52;96899.50;;;-0.90;53.95
34742;BME280;20968;42.696;23.360;2023-02-11T04:55:18;96906.41;;;-0.92;53.85
34742;BME280;20968;42.696;23.360;2023-02-11T04:57:43;96893.66;;;-0.92;53.92
34742;BME280;20968;42.696;23.360;2023-02-11T05:00:09;96878.53;;;-0.96;53.45
34742;BME280;20968;42.696;23.360;2023-02-11T05:02:34;96902.19;;;-0.90;54.27
34742;BME280;20968;42.696;23.360;2023-02-11T05:05:00;96899.44;;;-0.93;53.67
34742;BME280;20968;42.696;23.360;2023-02-11T05:07:26;96884.25;;;-1.01;54.01
34742;BME280;20968;42.696;23.360;2023-02-11T05:09:52;96894.78;;;-0.93;53.47
34742;BME280;20968;42.696;23.360;2023-02-11T05:12:17;96886.09;;;-1.05;53.66
34742;BME280;20968;42.696;23.360;2023-02-11T05:14:43;96883.78;;;-1.07;53.59
34742;BME280;20968;42.696;23.360;2023-02-11T05:17:08;96877.53;;;-1.11;53.55
34742;BME280;20968;42.696;23.360;2023-02-11T05:19:33;96884.56;;;-1.06;54.06
34742;BME280;20968;42.696;23.360;2023-02-11T05:21:59;96882.09;;;-1.15;53.38
34742;BME280;20968;42.696;23.360;2023-02-11T05:24:24;96897.16;;;-1.14;53.51
34742;BME280;20968;42.696;23.360;2023-02-11T05:26:50;96895.22;;;-1.13;53.31
34742;BME280;20968;42.696;23.360;2023-02-11T05:29:15;96882.88;;;-1.14;54.29
34742;BME280;20968;42.696;23.360;2023-02-11T05:31:40;96883.41;;;-1.05;52.85
34742;BME280;20968;42.696;23.360;2023-02-11T05:34:06;96876.56;;;-1.22;53.22
34742;BME280;20968;42.696;23.360;2023-02-11T05:36:31;96878.50;;;-1.22;53.22
34742;BME280;20968;42.696;23.360;2023-02-11T05:38:57;96874.94;;;-1.26;53.94
34742;BME280;20968;42.696;23.360;2023-02-11T05:41:22;96869.38;;;-1.37;54.49
34742;BME280;20968;42.696;23.360;2023-02-11T05:43:48;96877.28;;;-1.25;54.09
34742;BME280;20968;42.696;23.360;2023-02-11T05:46:17;96875.75;;;-1.26;53.84
34742;BME280;20968;42.696;23.360;2023-02-11T05:48:42;96887.38;;;-1.22;53.44
34742;BME280;20968;42.696;23.360;2023-02-11T05:51:08;96881.16;;;-1.26;53.90
34742;BME280;20968;42.696;23.360;2023-02-11T05:53:33;96889.66;;;-1.24;53.72
34742;BME280;20968;42.696;23.360;2023-02-11T05:55:59;96895.91;;;-1.20;53.87
34742;BME280;20968;42.696;23.360;2023-02-11T05:58:26;96908.34;;;-1.15;53.75
34742;BME280;20968;42.696;23.360;2023-02-11T06:00:52;96899.31;;;-1.23;53.99
34742;BME280;20968;42.696;23.360;2023-02-11T06:03:17;96901.78;;;-1.14;53.74
34742;BME280;20968;42.696;23.360;2023-02-11T06:05:43;96893.63;;;-1.18;53.92
34742;BME280;20968;42.696;23.360;2023-02-11T06:08:09;96881.91;;;-1.25;54.48
34742;BME280;20968;42.696;23.360;2023-02-11T06:10:34;96896.41;;;-1.14;53.89
34742;BME280;20968;42.696;23.360;2023-02-11T06:13:02;96905.75;;;-1.08;53.62
34742;BME280;20968;42.696;23.360;2023-02-11T06:15:33;96905.31;;;-1.10;53.75
34742;BME280;20968;42.696;23.360;2023-02-11T06:17:58;96901.50;;;-1.09;53.67
34742;BME280;20968;42.696;23.360;2023-02-11T06:20:24;96907.78;;;-1.02;54.41
34742;BME280;20968;42.696;23.360;2023-02-11T06:22:49;96887.97;;;-1.09;53.94
34742;BME280;20968;42.696;23.360;2023-02-11T06:25:14;96896.97;;;-1.02;53.46
34742;BME280;20968;42.696;23.360;2023-02-11T06:27:40;96913.44;;;-0.88;53.29
34742;BME280;20968;42.696;23.360;2023-02-11T06:30:06;96907.97;;;-0.91;53.94
34742;BME280;20968;42.696;23.360;2023-02-11T06:32:31;96899.19;;;-0.85;54.04
34742;BME280;20968;42.696;23.360;2023-02-11T06:34:57;96911.91;;;-0.85;54.36
34742;BME280;20968;42.696;23.360;2023-02-11T06:37:22;96900.25;;;-0.89;53.77
34742;BME280;20968;42.696;23.360;2023-02-11T06:39:48;96894.84;;;-0.89;54.37
34742;BME280;20968;42.696;23.360;2023-02-11T06:42:13;96903.97;;;-0.75;54.46
34742;BME280;20968;42.696;23.360;2023-02-11T06:44:38;96899.94;;;0.59;73.51
34742;BME280;20968;42.696;23.360;2023-02-11T06:47:32;96918.22;;;0.69;57.00
34742;BME280;20968;42.696;23.360;2023-02-11T06:49:57;96911.31;;;0.38;56.56
34742;BME280;20968;42.696;23.360;2023-02-11T06:52:23;96910.44;;;0.64;55.90
34742;BME280;20968;42.696;23.360;2023-02-11T06:54:48;96911.56;;;0.63;54.59
34742;BME280;20968;42.696;23.360;2023-02-11T06:57:14;96926.78;;;0.74;51.56
34742;BME280;20968;42.696;23.360;2023-02-11T06:59:39;96916.50;;;0.54;51.11
34742;BME280;20968;42.696;23.360;2023-02-11T07:02:09;96919.97;;;0.51;50.68
34742;BME280;20968;42.696;23.360;2023-02-11T07:04:34;96914.41;;;0.37;51.31
34742;BME280;20968;42.696;23.360;2023-02-11T07:07:00;96915.00;;;0.23;51.54
34742;BME280;20968;42.696;23.360;2023-02-11T07:09:25;96909.38;;;0.06;52.05
34742;BME280;20968;42.696;23.360;2023-02-11T07:11:53;96909.59;;;-0.06;51.64
34742;BME280;20968;42.696;23.360;2023-02-11T07:14:19;96909.34;;;0.02;52.32
34742;BME280;20968;42.696;23.360;2023-02-11T07:16:44;96899.69;;;0.05;52.43
34742;BME280;20968;42.696;23.360;2023-02-11T07:19:10;96904.34;;;0.08;51.85
34742;BME280;20968;42.696;23.360;2023-02-11T07:21:35;96905.19;;;0.12;52.13
34742;BME280;20968;42.696;23.360;2023-02-11T07:24:01;96900.16;;;0.10;52.06
34742;BME280;20968;42.696;23.360;2023-02-11T07:26:26;96893.94;;;0.10;52.00
34742;BME280;20968;42.696;23.360;2023-02-11T07:28:53;96898.22;;;0.11;52.35
34742;BME280;20968;42.696;23.360;2023-02-11T07:31:22;96890.56;;;0.16;51.83
34742;BME280;20968;42.696;23.360;2023-02-11T07:33:52;96907.91;;;0.12;51.59
34742;BME280;20968;42.696;23.360;2023-02-11T07:36:19;96898.63;;;0.13;52.34
34742;BME280;20968;42.696;23.360;2023-02-11T07:38:45;96880.34;;;0.03;52.77
34742;BME280;20968;42.696;23.360;2023-02-11T07:41:12;96883.78;;;0.00;53.78
34742;BME280;20968;42.696;23.360;2023-02-11T07:43:39;96865.50;;;-0.10;53.50
34742;BME280;20968;42.696;23.360;2023-02-11T07:46:06;96869.75;;;-0.09;54.23
34742;BME280;20968;42.696;23.360;2023-02-11T07:48:32;96862.44;;;-0.05;54.25
34742;BME280;20968;42.696;23.360;2023-02-11T07:51:21;96872.16;;;-0.01;53.29
34742;BME280;20968;42.696;23.360;2023-02-11T07:53:47;96864.72;;;-0.07;54.15
34742;BME280;20968;42.696;23.360;2023-02-11T07:56:14;96875.25;;;-0.02;54.55
34742;BME280;20968;42.696;23.360;2023-02-11T07:58:40;96873.19;;;-0.12;54.46
34742;BME280;20968;42.696;23.360;2023-02-11T08:01:11;96862.16;;;-0.29;54.56
34742;BME280;20968;42.696;23.360;2023-02-11T08:03:38;96871.50;;;-0.23;55.75
34742;BME280;20968;42.696;23.360;2023-02-11T08:06:10;96866.97;;;-0.16;55.73
34742;BME280;20968;42.696;23.360;2023-02-11T08:08:36;96858.13;;;-0.09;55.73
34742;BME280;20968;42.696;23.360;2023-02-11T08:11:10;96871.59;;;0.16;55.63
34742;BME280;20968;42.696;23.360;2023-02-11T08:13:36;96875.34;;;0.38;53.93
34742;BME280;20968;42.696;23.360;2023-02-11T08:16:03;96869.50;;;0.36;54.38
34742;BME280;20968;42.696;23.360;2023-02-11T08:18:29;96870.31;;;0.40;54.20
34742;BME280;20968;42.696;23.360;2023-02-11T08:20:55;96868.75;;;0.39;53.87
34742;BME280;20968;42.696;23.360;2023-02-11T08:23:20;96860.97;;;0.34;53.52
34742;BME280;20968;42.696;23.360;2023-02-11T08:25:46;96858.63;;;0.32;53.56
34742;BME280;20968;42.696;23.360;2023-02-11T08:28:14;96866.81;;;0.36;54.28
34742;BME280;20968;42.696;23.360;2023-02-11T08:30:39;96851.03;;;0.45;54.39
34742;BME280;20968;42.696;23.360;2023-02-11T08:33:04;96867.66;;;0.47;54.48
34742;BME280;20968;42.696;23.360;2023-02-11T08:35:30;96874.34;;;0.53;54.02
34742;BME280;20968;42.696;23.360;2023-02-11T08:37:57;96865.69;;;0.40;54.09
34742;BME280;20968;42.696;23.360;2023-02-11T08:40:22;96860.97;;;0.34;54.52
34742;BME280;20968;42.696;23.360;2023-02-11T08:42:52;96868.75;;;0.39;53.86
34742;BME280;20968;42.696;23.360;2023-02-11T08:45:17;96866.53;;;0.48;54.94
34742;BME280;20968;42.696;23.360;2023-02-11T08:47:43;96865.50;;;0.63;54.45
34742;BME280;20968;42.696;23.360;2023-02-11T08:50:08;96857.00;;;0.61;54.07
34742;BME280;20968;42.696;23.360;2023-02-11T08:52:35;96850.31;;;0.51;54.17
34742;BME280;20968;42.696;23.360;2023-02-11T08:55:00;96865.19;;;0.68;53.89
34742;BME280;20968;42.696;23.360;2023-02-11T08:57:25;96870.66;;;0.71;53.46
34742;BME280;20968;42.696;23.360;2023-02-11T08:59:51;96866.69;;;0.65;54.53
34742;BME280;20968;42.696;23.360;2023-02-11T09:02:16;96852.00;;;0.66;54.40
34742;BME280;20968;42.696;23.360;2023-02-11T09:04:42;96859.00;;;0.71;53.71
34742;BME280;20968;42.696;23.360;2023-02-11T09:07:07;96859.09;;;0.81;53.60
34742;BME280;20968;42.696;23.360;2023-02-11T09:09:32;96849.38;;;0.76;53.37
34742;BME280;20968;42.696;23.360;2023-02-11T09:11:59;96859.19;;;0.91;53.21
34742;BME280;20968;42.696;23.360;2023-02-11T09:14:25;96860.47;;;1.04;52.96
34742;BME280;20968;42.696;23.360;2023-02-11T09:16:50;96844.69;;;1.13;53.51
34742;BME280;20968;42.696;23.360;2023-02-11T09:19:19;96853.34;;;1.33;52.91
34742;BME280;20968;42.696;23.360;2023-02-11T09:21:45;96842.56;;;1.43;53.09
34742;BME280;20968;42.696;23.360;2023-02-11T09:24:11;96850.44;;;1.69;53.13
34742;BME280;20968;42.696;23.360;2023-02-11T09:26:37;96842.72;;;1.74;52.84
34742;BME280;20968;42.696;23.360;2023-02-11T09:29:03;96848.56;;;1.76;52.13
34742;BME280;20968;42.696;23.360;2023-02-11T09:31:33;96848.22;;;1.88;51.33
34742;BME280;20968;42.696;23.360;2023-02-11T09:34:04;96847.50;;;1.98;51.53
34742;BME280;20968;42.696;23.360;2023-02-11T09:36:35;96833.56;;;2.07;51.08
34742;BME280;20968;42.696;23.360;2023-02-11T09:39:15;96835.91;;;2.08;50.07
34742;BME280;20968;42.696;23.360;2023-02-11T09:44:31;96823.97;;;2.40;48.96
34742;BME280;20968;42.696;23.360;2023-02-11T09:49:44;96815.47;;;2.70;48.23
34742;BME280;20968;42.696;23.360;2023-02-11T09:55:53;96812.78;;;2.80;46.46
34742;BME280;20968;42.696;23.360;2023-02-11T09:58:28;96798.78;;;2.99;46.62
34742;BME280;20968;42.696;23.360;2023-02-11T10:01:07;96797.59;;;3.24;45.93
34742;BME280;20968;42.696;23.360;2023-02-11T10:06:58;96789.41;;;3.35;45.08
34742;BME280;20968;42.696;23.360;2023-02-11T10:20:35;96758.44;;;4.07;43.60
34742;BME280;20968;42.696;23.360;2023-02-11T10:23:18;96742.38;;;4.23;43.40
34742;BME280;20968;42.696;23.360;2023-02-11T10:25:50;96734.22;;;4.20;42.86
34742;BME280;20968;42.696;23.360;2023-02-11T10:28:35;96736.06;;;4.33;41.65
34742;BME280;20968;42.696;23.360;2023-02-11T10:31:33;96725.75;;;4.61;40.30
34742;BME280;20968;42.696;23.360;2023-02-11T10:34:18;96719.53;;;4.61;40.65
34742;BME280;20968;42.696;23.360;2023-02-11T10:36:44;96706.94;;;4.74;41.24
34742;BME280;20968;42.696;23.360;2023-02-11T10:39:12;96714.28;;;4.84;38.74
34742;BME280;20968;42.696;23.360;2023-02-11T10:41:42;96692.25;;;4.61;39.73
34742;BME280;20968;42.696;23.360;2023-02-11T10:44:22;96670.38;;;4.68;39.50
34742;BME280;20968;42.696;23.360;2023-02-11T10:46:50;96683.84;;;4.85;38.44
34742;BME280;20968;42.696;23.360;2023-02-11T10:52:18;96674.69;;;5.06;39.00
34742;BME280;20968;42.696;23.360;2023-02-11T10:55:23;96662.91;;;5.16;38.17
34742;BME280;20968;42.696;23.360;2023-02-11T10:57:56;96654.31;;;5.14;38.75
34742;BME280;20968;42.696;23.360;2023-02-11T11:00:52;96657.09;;;5.43;38.80
34742;BME280;20968;42.696;23.360;2023-02-11T11:03:20;96648.53;;;5.71;38.07
34742;BME280;20968;42.696;23.360;2023-02-11T11:06:14;96653.13;;;5.81;35.96
34742;BME280;20968;42.696;23.360;2023-02-11T11:08:44;96652.72;;;5.83;36.93
34742;BME280;20968;42.696;23.360;2023-02-11T11:11:13;96638.25;;;5.86;36.81
34742;BME280;20968;42.696;23.360;2023-02-11T11:16:29;96629.03;;;6.03;36.80
34742;BME280;20968;42.696;23.360;2023-02-11T11:21:51;96619.41;;;6.18;36.33
34742;BME280;20968;42.696;23.360;2023-02-11T11:24:24;96607.28;;;6.18;35.50
34742;BME280;20968;42.696;23.360;2023-02-11T11:26:56;96617.19;;;6.09;35.45
34742;BME280;20968;42.696;23.360;2023-02-11T11:29:33;96634.66;;;6.15;35.50
34742;BME280;20968;42.696;23.360;2023-02-11T11:32:27;96628.91;;;6.10;35.45
34742;BME280;20968;42.696;23.360;2023-02-11T11:34:55;96625.03;;;6.33;35.47
34742;BME280;20968;42.696;23.360;2023-02-11T11:37:28;96616.28;;;6.42;34.80
34742;BME280;20968;42.696;23.360;2023-02-11T11:42:41;96614.63;;;6.48;34.27
34742;BME280;20968;42.696;23.360;2023-02-11T11:58:39;96590.25;;;7.38;35.18
34742;BME280;20968;42.696;23.360;2023-02-11T12:01:24;96588.88;;;7.65;34.06
34742;BME280;20968;42.696;23.360;2023-02-11T12:04:18;96585.16;;;7.91;32.52
34742;BME280;20968;42.696;23.360;2023-02-11T12:24:09;96541.38;;;7.36;32.45
34742;BME280;20968;42.696;23.360;2023-02-11T12:26:45;96531.13;;;7.56;31.74
34742;BME280;20968;42.696;23.360;2023-02-11T12:29:30;96521.88;;;7.50;32.02
34742;BME280;20968;42.696;23.360;2023-02-11T12:37:57;96528.63;;;7.81;31.04
34742;BME280;20968;42.696;23.360;2023-02-11T12:49:31;96514.34;;;8.21;31.82
34742;BME280;20968;42.696;23.360;2023-02-11T12:52:15;96508.66;;;8.28;31.18
34742;BME280;20968;42.696;23.360;2023-02-11T12:54:50;96510.47;;;8.35;29.91
34742;BME280;20968;42.696;23.360;2023-02-11T12:57:28;96503.63;;;8.27;31.09
34742;BME280;20968;42.696;23.360;2023-02-11T13:10:54;96504.09;;;7.90;32.37
34742;BME280;20968;42.696;23.360;2023-02-11T13:13:32;96490.16;;;7.84;32.62
34742;BME280;20968;42.696;23.360;2023-02-11T13:16:16;96498.47;;;7.97;32.56
34742;BME280;20968;42.696;23.360;2023-02-11T13:32:12;96487.94;;;7.44;31.90
34742;BME280;20968;42.696;23.360;2023-02-11T13:37:25;96481.63;;;7.47;32.12
34742;BME280;20968;42.696;23.360;2023-02-11T13:43:04;96474.34;;;7.57;31.38
34742;BME280;20968;42.696;23.360;2023-02-11T13:45:45;96458.69;;;7.57;30.82
34742;BME280;20968;42.696;23.360;2023-02-11T13:48:22;96462.47;;;7.63;30.25
34742;BME280;20968;42.696;23.360;2023-02-11T13:53:28;96459.19;;;7.68;30.48
34742;BME280;20968;42.696;23.360;2023-02-11T13:56:10;96446.69;;;7.35;31.01
34742;BME280;20968;42.696;23.360;2023-02-11T13:58:46;96442.59;;;7.43;30.80
34742;BME280;20968;42.696;23.360;2023-02-11T14:04:31;96438.97;;;7.62;30.48
34742;BME280;20968;42.696;23.360;2023-02-11T14:13:26;96436.69;;;7.61;30.04
34742;BME280;20968;42.696;23.360;2023-02-11T14:16:11;96444.91;;;7.76;30.28
34742;BME280;20968;42.696;23.360;2023-02-11T14:23:53;96435.81;;;7.64;29.46
34742;BME280;20968;42.696;23.360;2023-02-11T14:29:22;96436.59;;;7.80;29.49
34742;BME280;20968;42.696;23.360;2023-02-11T14:34:40;96435.41;;;7.81;31.18
34742;BME280;20968;42.696;23.360;2023-02-11T14:39:51;96439.75;;;7.94;31.00
34742;BME280;20968;42.696;23.360;2023-02-11T14:42:22;96434.59;;;7.49;31.38
34742;BME280;20968;42.696;23.360;2023-02-11T14:44:53;96429.84;;;7.17;31.62
34742;BME280;20968;42.696;23.360;2023-02-11T14:47:29;96423.47;;;6.89;32.34
34742;BME280;20968;42.696;23.360;2023-02-11T14:50:00;96421.44;;;6.54;33.05
34742;BME280;20968;42.696;23.360;2023-02-11T14:52:28;96423.34;;;6.57;32.87
34742;BME280;20968;42.696;23.360;2023-02-11T14:55:14;96435.63;;;6.49;33.64
34742;BME280;20968;42.696;23.360;2023-02-11T14:57:41;96425.38;;;6.33;37.95
34742;BME280;20968;42.696;23.360;2023-02-11T15:00:20;96431.91;;;6.59;35.03
34742;BME280;20968;42.696;23.360;2023-02-11T15:02:46;96425.94;;;6.44;34.17
34742;BME280;20968;42.696;23.360;2023-02-11T15:05:27;96430.34;;;6.19;34.41
34742;BME280;20968;42.696;23.360;2023-02-11T15:07:59;96424.34;;;6.05;34.13
34742;BME280;20968;42.696;23.360;2023-02-11T15:12:51;96398.56;;;5.60;35.12
34742;BME280;20968;42.696;23.360;2023-02-11T15:15:17;96398.03;;;5.45;35.29
34742;BME280;20968;42.696;23.360;2023-02-11T15:17:43;96415.81;;;5.57;35.71
34742;BME280;20968;42.696;23.360;2023-02-11T15:20:24;96407.81;;;5.43;35.44
34742;BME280;20968;42.696;23.360;2023-02-11T15:22:55;96409.78;;;5.42;36.01
34742;BME280;20968;42.696;23.360;2023-02-11T15:25:21;96399.63;;;5.43;36.21
34742;BME280;20968;42.696;23.360;2023-02-11T15:27:53;96397.31;;;5.41;36.06
34742;BME280;20968;42.696;23.360;2023-02-11T15:32:46;96398.03;;;5.45;35.66
34742;BME280;20968;42.696;23.360;2023-02-11T15:35:12;96401.22;;;5.40;35.66
34742;BME280;20968;42.696;23.360;2023-02-11T15:37:39;96396.56;;;5.41;35.37
34742;BME280;20968;42.696;23.360;2023-02-11T15:40:32;96404.38;;;5.39;36.33
34742;BME280;20968;42.696;23.360;2023-02-11T15:45:39;96391.38;;;5.24;36.07
34742;BME280;20968;42.696;23.360;2023-02-11T15:48:15;96398.41;;;5.21;36.03
34742;BME280;20968;42.696;23.360;2023-02-11T15:50:57;96397.50;;;5.05;36.54
34742;BME280;20968;42.696;23.360;2023-02-11T15:53:31;96399.16;;;4.99;36.61
34742;BME280;20968;42.696;23.360;2023-02-11T15:56:06;96402.69;;;4.96;37.01
34742;BME280;20968;42.696;23.360;2023-02-11T15:58:37;96398.09;;;4.93;37.09